Time;durP1;ratioP1;P1;durP2;ratioP2;P2;SDS_P1;SDS_P2;PMS_P1;PMS_P2;Temp;Humidity;BMP_temperature;BMP_pressure;BME280_temperature;BME280_humidity;BME280_pressure;Samples;Min_cycle;Max_cycle;Signal;HPM_P1;HPM_P2
2023/05/15 00:00:26;;;;;;;;;35.50;33.25;;;;;-147.17;100.00;-15917.19;5007267;28;53764;-63
2023/05/15 00:02:51;;;;;;;;;42.00;36.00;;;;;-147.17;100.00;-15917.19;5008257;28;51397;-63
2023/05/15 00:05:17;;;;;;;;;40.50;36.00;;;;;-147.17;100.00;-15917.19;5006106;28;51571;-63
2023/05/15 00:07:42;;;;;;;;;41.00;35.25;;;;;-147.17;100.00;-15917.19;5009261;28;51097;-62
2023/05/15 00:10:08;;;;;;;;;40.50;35.50;;;;;-147.17;100.00;-15917.19;5010958;28;51814;-62
2023/05/15 00:12:33;;;;;;;;;39.50;34.75;;;;;-147.17;100.00;-15917.19;5002909;28;50968;-62
2023/05/15 00:14:59;;;;;;;;;35.75;33.25;;;;;-147.17;100.00;-15917.19;5004243;28;51168;-63
2023/05/15 00:17:24;;;;;;;;;45.75;35.25;;;;;-147.17;100.00;-15917.19;5009649;28;51793;-62
2023/05/15 00:19:50;;;;;;;;;44.00;35.50;;;;;-147.17;100.00;-15917.19;5007339;28;52612;-63
2023/05/15 00:22:15;;;;;;;;;39.00;34.75;;;;;-147.17;100.00;-15917.19;5009941;28;51142;-63
2023/05/15 00:24:40;;;;;;;;;42.75;36.00;;;;;-147.17;100.00;-15917.19;5012421;28;51480;-62
2023/05/15 00:27:06;;;;;;;;;42.75;34.00;;;;;-147.17;100.00;-15917.19;5011384;28;51345;-62
2023/05/15 00:29:31;;;;;;;;;45.00;37.25;;;;;-147.17;100.00;-15917.19;5004463;28;51875;-62
2023/05/15 00:31:56;;;;;;;;;44.25;36.00;;;;;-147.17;100.00;-15917.19;5007764;28;56316;-63
2023/05/15 00:34:23;;;;;;;;;39.00;32.75;;;;;-147.17;100.00;-15917.19;5011916;28;51138;-63
2023/05/15 00:36:49;;;;;;;;;43.50;37.00;;;;;-147.17;100.00;-15917.19;5012315;28;52098;-63
2023/05/15 00:39:14;;;;;;;;;43.25;36.50;;;;;-147.17;100.00;-15917.19;5010723;28;51218;-64
2023/05/15 00:41:41;;;;;;;;;47.00;38.25;;;;;-147.17;100.00;-15917.19;5010737;28;51058;-63
2023/05/15 00:44:08;;;;;;;;;42.25;36.50;;;;;-147.17;100.00;-15917.19;5011418;28;51155;-64
2023/05/15 00:46:34;;;;;;;;;46.75;39.75;;;;;-147.17;100.00;-15917.19;5011397;28;50985;-64
2023/05/15 00:49:05;;;;;;;;;48.50;38.75;;;;;-147.17;100.00;-15917.19;5011219;28;52841;-64
2023/05/15 00:51:31;;;;;;;;;44.00;37.25;;;;;-147.17;100.00;-15917.19;5011321;28;51480;-63
2023/05/15 00:53:57;;;;;;;;;48.00;39.50;;;;;-147.17;100.00;-15917.19;5009642;28;51558;-63
2023/05/15 00:56:24;;;;;;;;;44.25;38.25;;;;;-147.17;100.00;-15917.19;5009625;28;51240;-63
2023/05/15 00:58:50;;;;;;;;;49.75;40.25;;;;;-147.17;100.00;-15917.19;5009498;28;51051;-63
2023/05/15 01:01:16;;;;;;;;;45.25;38.00;;;;;-147.17;100.00;-15917.19;5010213;28;50995;-64
2023/05/15 01:03:43;;;;;;;;;47.25;38.50;;;;;-147.17;100.00;-15917.19;5009525;28;51242;-65
2023/05/15 01:06:08;;;;;;;;;48.25;39.75;;;;;-147.17;100.00;-15917.19;5009026;28;51145;-64
2023/05/15 01:08:43;;;;;;;;;46.75;38.00;;;;;-147.17;100.00;-15917.19;5001801;28;51121;-64
2023/05/15 01:11:10;;;;;;;;;49.25;41.75;;;;;-147.17;100.00;-15917.19;5009226;28;51197;-64
2023/05/15 01:13:35;;;;;;;;;50.25;40.00;;;;;-147.17;100.00;-15917.19;5004249;28;51132;-65
2023/05/15 01:16:01;;;;;;;;;48.25;40.75;;;;;-147.17;100.00;-15917.19;5009876;28;51062;-62
2023/05/15 01:18:35;;;;;;;;;46.50;37.25;;;;;-147.17;100.00;-15917.19;5010847;28;51826;-64
2023/05/15 01:21:10;;;;;;;;;44.75;38.50;;;;;-147.17;100.00;-15917.19;5008588;28;51328;-62
2023/05/15 01:23:47;;;;;;;;;52.00;42.00;;;;;-147.17;100.00;-15917.19;5011362;28;51078;-62
2023/05/15 01:26:30;;;;;;;;;45.50;38.00;;;;;-147.17;100.00;-15917.19;5007276;28;51174;-64
2023/05/15 01:29:06;;;;;;;;;48.00;40.50;;;;;-147.17;100.00;-15917.19;5007881;28;51262;-65
2023/05/15 01:31:35;;;;;;;;;52.75;42.75;;;;;-147.17;100.00;-15917.19;5011090;28;51241;-66
2023/05/15 01:34:05;;;;;;;;;44.50;38.25;;;;;-147.17;100.00;-15917.19;5009191;28;52640;-64
2023/05/15 01:36:42;;;;;;;;;51.00;42.00;;;;;-147.17;100.00;-15917.19;5012576;28;51371;-64
2023/05/15 01:39:09;;;;;;;;;49.50;41.25;;;;;-147.17;100.00;-15917.19;5011649;28;52771;-64
2023/05/15 01:41:50;;;;;;;;;51.25;42.00;;;;;-147.17;100.00;-15917.19;5014629;28;51080;-64
2023/05/15 01:44:27;;;;;;;;;44.00;37.75;;;;;-147.17;100.00;-15917.19;5013900;28;51023;-64
2023/05/15 01:46:56;;;;;;;;;48.50;40.50;;;;;-147.17;100.00;-15917.19;5013640;28;51442;-64
2023/05/15 01:49:25;;;;;;;;;51.00;41.50;;;;;-147.17;100.00;-15917.19;5010693;28;51966;-64
2023/05/15 01:52:07;;;;;;;;;44.00;38.00;;;;;-147.17;100.00;-15917.19;5012433;28;51083;-64
2023/05/15 01:54:35;;;;;;;;;46.00;40.00;;;;;-147.17;100.00;-15917.19;5014298;28;51136;-64
2023/05/15 01:57:01;;;;;;;;;50.25;41.25;;;;;-147.17;100.00;-15917.19;5013487;28;51204;-64
2023/05/15 01:59:28;;;;;;;;;47.50;38.50;;;;;-147.17;100.00;-15917.19;5013475;28;51841;-64
2023/05/15 02:01:56;;;;;;;;;48.00;38.50;;;;;-147.17;100.00;-15917.19;5012259;28;51015;-64
2023/05/15 02:04:23;;;;;;;;;50.25;41.00;;;;;-147.17;100.00;-15917.19;5014177;28;51324;-64
2023/05/15 02:06:49;;;;;;;;;50.00;40.75;;;;;-147.17;100.00;-15917.19;5010911;28;51350;-64
2023/05/15 02:09:16;;;;;;;;;51.25;40.00;;;;;-147.17;100.00;-15917.19;5009724;28;52200;-64
2023/05/15 02:11:41;;;;;;;;;52.75;41.50;;;;;-147.17;100.00;-15917.19;5013207;28;51091;-63
2023/05/15 02:14:08;;;;;;;;;50.50;40.50;;;;;-147.17;100.00;-15917.19;5011518;28;51018;-64
2023/05/15 02:16:34;;;;;;;;;50.75;40.00;;;;;-147.17;100.00;-15917.19;5011215;28;51217;-64
2023/05/15 02:18:59;;;;;;;;;48.50;40.00;;;;;-147.17;100.00;-15917.19;5011660;28;51047;-64
2023/05/15 02:21:25;;;;;;;;;43.75;38.25;;;;;-147.17;100.00;-15917.19;5012568;28;50976;-64
2023/05/15 02:23:50;;;;;;;;;44.25;37.50;;;;;-147.17;100.00;-15917.19;5012166;28;51064;-65
2023/05/15 02:26:24;;;;;;;;;46.00;39.75;;;;;-147.17;100.00;-15917.19;5010522;28;51407;-64
2023/05/15 02:29:21;;;;;;;;;47.00;40.00;;;;;-147.17;100.00;-15917.19;5009368;28;51240;-65
2023/05/15 02:32:17;;;;;;;;;52.25;42.75;;;;;-147.17;100.00;-15917.19;4997832;28;51790;-63
2023/05/15 02:35:01;;;;;;;;;43.50;37.25;;;;;-147.17;100.00;-15917.19;5003128;28;51064;-63
2023/05/15 02:37:31;;;;;;;;;50.75;42.00;;;;;-147.17;100.00;-15917.19;5011319;28;51044;-64
2023/05/15 02:39:59;;;;;;;;;50.00;40.50;;;;;-147.17;100.00;-15917.19;5012243;28;51983;-64
2023/05/15 02:42:30;;;;;;;;;48.00;40.75;;;;;-147.17;100.00;-15917.19;5011688;28;51116;-64
2023/05/15 02:44:56;;;;;;;;;46.00;39.25;;;;;-147.17;100.00;-15917.19;5011981;28;51133;-64
2023/05/15 02:47:23;;;;;;;;;48.00;39.00;;;;;-147.17;100.00;-15917.19;5008264;28;51264;-63
2023/05/15 02:49:49;;;;;;;;;47.75;38.25;;;;;-147.17;100.00;-15917.19;5008380;28;51940;-64
2023/05/15 02:52:15;;;;;;;;;48.50;40.50;;;;;-147.17;100.00;-15917.19;5012043;28;51098;-65
2023/05/15 02:54:40;;;;;;;;;45.25;39.00;;;;;-147.17;100.00;-15917.19;5011694;28;51043;-64
2023/05/15 02:57:07;;;;;;;;;52.25;43.25;;;;;-147.17;100.00;-15917.19;5011427;28;51023;-64
2023/05/15 02:59:33;;;;;;;;;48.50;41.00;;;;;-147.17;100.00;-15917.19;5011659;28;51109;-63
2023/05/15 03:01:58;;;;;;;;;52.50;42.25;;;;;-147.17;100.00;-15917.19;5010136;28;51248;-64
2023/05/15 03:04:24;;;;;;;;;53.00;42.75;;;;;-147.17;100.00;-15917.19;5010753;28;51065;-63
2023/05/15 03:06:49;;;;;;;;;42.50;37.50;;;;;-147.17;100.00;-15917.19;5010022;28;51317;-63
2023/05/15 03:09:15;;;;;;;;;52.00;41.00;;;;;-147.17;100.00;-15917.19;5010790;28;51085;-63
2023/05/15 03:11:40;;;;;;;;;45.75;37.50;;;;;-147.17;100.00;-15917.19;5012138;28;51199;-64
2023/05/15 03:14:06;;;;;;;;;48.50;37.50;;;;;-147.17;100.00;-15917.19;5009077;28;51075;-64
2023/05/15 03:16:31;;;;;;;;;49.75;40.50;;;;;-147.17;100.00;-15917.19;5011256;28;51658;-65
2023/05/15 03:18:56;;;;;;;;;45.75;39.50;;;;;-147.17;100.00;-15917.19;5012378;28;51891;-64
2023/05/15 03:21:22;;;;;;;;;40.25;35.00;;;;;-147.17;100.00;-15917.19;5011993;28;50985;-64
2023/05/15 03:23:47;;;;;;;;;49.50;41.00;;;;;-147.17;100.00;-15917.19;5009965;28;51090;-65
2023/05/15 03:26:12;;;;;;;;;49.25;41.00;;;;;-147.17;100.00;-15917.19;5009448;28;51019;-63
2023/05/15 03:28:38;;;;;;;;;44.25;37.75;;;;;-147.17;100.00;-15917.19;5010051;28;58308;-65
2023/05/15 03:31:07;;;;;;;;;47.25;38.75;;;;;-147.17;100.00;-15917.19;5012147;28;51025;-66
2023/05/15 03:33:33;;;;;;;;;48.25;40.25;;;;;-147.17;100.00;-15917.19;4991839;28;51362;-63
2023/05/15 03:35:58;;;;;;;;;49.00;40.50;;;;;-147.17;100.00;-15917.19;5009881;28;51273;-63
2023/05/15 03:38:24;;;;;;;;;42.25;37.25;;;;;-147.17;100.00;-15917.19;5011308;28;51213;-63
2023/05/15 03:40:49;;;;;;;;;48.75;38.75;;;;;-147.17;100.00;-15917.19;5011401;28;51099;-63
2023/05/15 03:43:14;;;;;;;;;41.25;35.50;;;;;-147.17;100.00;-15917.19;5012563;28;51003;-64
2023/05/15 03:45:40;;;;;;;;;42.50;37.25;;;;;-147.17;100.00;-15917.19;5010883;28;51318;-63
2023/05/15 03:48:05;;;;;;;;;49.25;39.25;;;;;-147.17;100.00;-15917.19;5010802;28;51128;-63
2023/05/15 03:50:31;;;;;;;;;40.75;36.25;;;;;-147.17;100.00;-15917.19;5012351;28;50979;-63
2023/05/15 03:52:56;;;;;;;;;39.00;34.50;;;;;-147.17;100.00;-15917.19;5007950;28;51284;-63
2023/05/15 03:55:21;;;;;;;;;47.25;39.25;;;;;-147.17;100.00;-15917.19;5011439;28;51127;-63
2023/05/15 03:57:47;;;;;;;;;45.00;38.25;;;;;-147.17;100.00;-15917.19;5008023;28;51907;-63
2023/05/15 04:00:12;;;;;;;;;43.75;37.75;;;;;-147.17;100.00;-15917.19;5008039;28;51054;-63
2023/05/15 04:02:39;;;;;;;;;46.00;38.50;;;;;-147.17;100.00;-15917.19;5011357;28;51348;-63
2023/05/15 04:05:05;;;;;;;;;49.00;39.00;;;;;-147.17;100.00;-15917.19;5008585;28;51162;-63
2023/05/15 04:07:32;;;;;;;;;50.75;39.00;;;;;-147.17;100.00;-15917.19;5008165;28;52755;-64
2023/05/15 04:10:00;;;;;;;;;47.00;39.75;;;;;-147.17;100.00;-15917.19;5011249;28;51274;-62
2023/05/15 04:12:28;;;;;;;;;49.50;41.00;;;;;-147.17;100.00;-15917.19;5009742;28;51224;-63
2023/05/15 04:14:55;;;;;;;;;46.00;36.50;;;;;-147.17;100.00;-15917.19;5011196;28;51194;-63
2023/05/15 04:17:20;;;;;;;;;48.00;39.00;;;;;-147.17;100.00;-15917.19;5009566;28;51222;-64
2023/05/15 04:19:46;;;;;;;;;50.00;39.50;;;;;-147.17;100.00;-15917.19;5008596;28;52704;-63
2023/05/15 04:22:12;;;;;;;;;48.25;38.75;;;;;-147.17;100.00;-15917.19;5008964;28;50934;-63
2023/05/15 04:24:38;;;;;;;;;49.75;41.75;;;;;-147.17;100.00;-15917.19;5011446;28;50966;-63
2023/05/15 04:27:03;;;;;;;;;49.75;39.25;;;;;-147.17;100.00;-15917.19;5009063;28;51224;-63
2023/05/15 04:29:29;;;;;;;;;52.25;41.25;;;;;-147.17;100.00;-15917.19;5010066;28;51180;-63
2023/05/15 04:31:54;;;;;;;;;50.00;41.50;;;;;-147.17;100.00;-15917.19;5009683;28;51332;-63
2023/05/15 04:34:20;;;;;;;;;49.00;38.25;;;;;-147.17;100.00;-15917.19;5007435;28;51010;-63
2023/05/15 04:36:45;;;;;;;;;44.50;37.25;;;;;-147.17;100.00;-15917.19;5009295;28;51154;-63
2023/05/15 04:39:11;;;;;;;;;50.25;39.75;;;;;-147.17;100.00;-15917.19;5008800;28;51263;-63
2023/05/15 04:41:36;;;;;;;;;49.50;40.50;;;;;-147.17;100.00;-15917.19;5010947;28;51058;-63
2023/05/15 04:44:02;;;;;;;;;43.75;37.50;;;;;-147.17;100.00;-15917.19;5001251;28;51152;-63
2023/05/15 04:46:28;;;;;;;;;44.50;38.50;;;;;-147.17;100.00;-15917.19;5010152;28;51146;-62
2023/05/15 04:48:53;;;;;;;;;45.75;38.00;;;;;-147.17;100.00;-15917.19;5012130;28;50936;-64
2023/05/15 04:51:18;;;;;;;;;44.50;36.00;;;;;-147.17;100.00;-15917.19;5010898;28;51137;-64
2023/05/15 04:53:44;;;;;;;;;51.25;41.00;;;;;-147.17;100.00;-15917.19;5011403;28;51174;-64
2023/05/15 04:56:09;;;;;;;;;49.25;39.25;;;;;-147.17;100.00;-15917.19;5009913;28;51959;-64
2023/05/15 04:58:35;;;;;;;;;48.00;37.50;;;;;-147.17;100.00;-15917.19;5001147;28;51018;-64
2023/05/15 05:01:00;;;;;;;;;47.50;39.00;;;;;-147.17;100.00;-15917.19;5009727;28;52200;-64
2023/05/15 05:03:26;;;;;;;;;50.00;41.25;;;;;-147.17;100.00;-15917.19;5008202;28;51398;-64
2023/05/15 05:05:51;;;;;;;;;43.00;37.75;;;;;-147.17;100.00;-15917.19;5009247;28;51760;-63
2023/05/15 05:08:16;;;;;;;;;48.75;40.75;;;;;-147.17;100.00;-15917.19;5011112;28;59343;-63
2023/05/15 05:10:42;;;;;;;;;44.25;37.75;;;;;-147.17;100.00;-15917.19;5007155;28;51063;-64
2023/05/15 05:13:07;;;;;;;;;49.00;40.50;;;;;-147.17;100.00;-15917.19;5009219;28;51710;-64
2023/05/15 05:15:33;;;;;;;;;47.00;38.75;;;;;-147.17;100.00;-15917.19;5010173;28;53712;-64
2023/05/15 05:17:58;;;;;;;;;46.00;35.75;;;;;-147.17;100.00;-15917.19;5011047;28;51142;-64
2023/05/15 05:20:24;;;;;;;;;49.25;39.75;;;;;-147.17;100.00;-15917.19;4993819;28;51275;-64
2023/05/15 05:22:49;;;;;;;;;41.50;36.00;;;;;-147.17;100.00;-15917.19;5015061;28;51241;-63
2023/05/15 05:25:15;;;;;;;;;40.75;35.00;;;;;-147.17;100.00;-15917.19;5014512;28;52526;-63
2023/05/15 05:27:40;;;;;;;;;49.00;38.00;;;;;-147.17;100.00;-15917.19;5012590;28;51156;-64
2023/05/15 05:30:07;;;;;;;;;39.50;33.75;;;;;-147.17;100.00;-15917.19;5007613;28;51146;-64
2023/05/15 05:32:32;;;;;;;;;48.50;41.00;;;;;-147.17;100.00;-15917.19;5015101;28;51007;-64
2023/05/15 05:34:58;;;;;;;;;39.50;33.25;;;;;-147.17;100.00;-15917.19;5014191;28;52033;-63
2023/05/15 05:37:23;;;;;;;;;45.00;38.00;;;;;-147.17;100.00;-15917.19;5013014;28;50971;-63
2023/05/15 05:39:48;;;;;;;;;47.75;37.50;;;;;-147.17;100.00;-15917.19;5014723;28;51211;-64
2023/05/15 05:42:13;;;;;;;;;50.25;40.75;;;;;-147.17;100.00;-15917.19;5014558;28;51094;-63
2023/05/15 05:44:39;;;;;;;;;45.50;38.25;;;;;-147.17;100.00;-15917.19;5007598;28;53241;-64
2023/05/15 05:47:04;;;;;;;;;44.00;36.00;;;;;-147.17;100.00;-15917.19;5014645;28;51115;-64
2023/05/15 05:49:30;;;;;;;;;41.00;36.00;;;;;-147.17;100.00;-15917.19;5012701;28;51095;-64
2023/05/15 05:51:55;;;;;;;;;46.00;38.25;;;;;-147.17;100.00;-15917.19;5011494;28;51245;-64
2023/05/15 05:54:20;;;;;;;;;44.25;36.75;;;;;-147.17;100.00;-15917.19;5009979;28;66854;-64
2023/05/15 05:56:46;;;;;;;;;44.50;38.25;;;;;-147.17;100.00;-15917.19;5014174;28;51022;-64
2023/05/15 05:59:11;;;;;;;;;45.75;37.50;;;;;-147.17;100.00;-15917.19;5014082;28;51004;-64
2023/05/15 06:01:37;;;;;;;;;47.50;39.25;;;;;-147.17;100.00;-15917.19;5012320;28;51074;-63
2023/05/15 06:04:02;;;;;;;;;39.75;35.25;;;;;-147.17;100.00;-15917.19;5009491;28;51713;-64
2023/05/15 06:06:27;;;;;;;;;48.25;39.00;;;;;-147.17;100.00;-15917.19;4995552;28;50969;-64
2023/05/15 06:08:53;;;;;;;;;37.00;33.75;;;;;-147.17;100.00;-15917.19;5012990;28;50979;-64
2023/05/15 06:11:18;;;;;;;;;49.75;39.50;;;;;-147.17;100.00;-15917.19;5011898;28;51247;-65
2023/05/15 06:16:19;;;;;;;;;47.75;36.00;;;;;-147.17;100.00;-15917.19;5070429;22;51053;-62
2023/05/15 06:18:44;;;;;;;;;46.00;37.75;;;;;-147.17;100.00;-15917.19;5013655;28;51216;-63
2023/05/15 06:21:09;;;;;;;;;39.75;34.50;;;;;-147.17;100.00;-15917.19;5032381;28;51270;-62
2023/05/15 06:23:36;;;;;;;;;40.00;34.50;;;;;-147.17;100.00;-15917.19;5032727;28;51998;-61
2023/05/15 06:26:03;;;;;;;;;41.75;37.25;;;;;-147.17;100.00;-15917.19;5032643;28;51046;-63
2023/05/15 06:28:28;;;;;;;;;44.25;37.00;;;;;-147.17;100.00;-15917.19;5033709;28;51191;-62
2023/05/15 06:30:53;;;;;;;;;47.75;37.75;;;;;-147.17;100.00;-15917.19;5029334;28;51263;-62
2023/05/15 06:35:54;;;;;;;;;39.75;34.25;;;;;-147.17;100.00;-15917.19;4911372;26;51083;-63
2023/05/15 06:38:19;;;;;;;;;41.75;35.75;;;;;-147.17;100.00;-15917.19;4967060;28;51097;-63
2023/05/15 06:40:45;;;;;;;;;48.00;38.25;;;;;-147.17;100.00;-15917.19;4963535;28;51049;-62
2023/05/15 06:43:10;;;;;;;;;40.00;35.00;;;;;-147.17;100.00;-15917.19;4973658;28;52079;-63
2023/05/15 06:45:35;;;;;;;;;36.75;33.00;;;;;-147.17;100.00;-15917.19;4957370;28;51169;-62
2023/05/15 06:48:02;;;;;;;;;42.25;37.00;;;;;-147.17;100.00;-15917.19;4969910;28;51049;-62
2023/05/15 06:50:27;;;;;;;;;37.00;33.25;;;;;-147.17;100.00;-15917.19;4987622;28;51067;-62
2023/05/15 06:52:53;;;;;;;;;35.50;28.75;;;;;-147.17;100.00;-15917.19;4965659;28;51932;-63
2023/05/15 06:55:19;;;;;;;;;44.00;38.00;;;;;-147.17;100.00;-15917.19;4971984;28;51346;-62
2023/05/15 06:57:44;;;;;;;;;40.25;34.50;;;;;-147.17;100.00;-15917.19;4970755;28;50984;-62
2023/05/15 07:00:11;;;;;;;;;39.00;34.75;;;;;-147.17;100.00;-15917.19;4970965;28;51094;-64
2023/05/15 07:02:36;;;;;;;;;42.50;36.25;;;;;-147.17;100.00;-15917.19;4954661;28;51348;-65
2023/05/15 07:05:02;;;;;;;;;38.75;34.50;;;;;-147.17;100.00;-15917.19;5244484;22;51222;-64
2023/05/15 07:07:27;;;;;;;;;46.25;35.25;;;;;-147.17;100.00;-15917.19;4973443;28;51045;-63
2023/05/15 07:09:56;;;;;;;;;38.50;34.00;;;;;-147.17;100.00;-15917.19;4984265;28;51094;-63
2023/05/15 07:12:21;;;;;;;;;46.50;37.50;;;;;-147.17;100.00;-15917.19;4995569;28;51097;-64
2023/05/15 07:14:46;;;;;;;;;39.50;34.00;;;;;-147.17;100.00;-15917.19;4989407;28;51126;-64
2023/05/15 07:17:12;;;;;;;;;47.00;39.25;;;;;-147.17;100.00;-15917.19;4992713;28;51164;-63
2023/05/15 07:19:40;;;;;;;;;40.50;34.50;;;;;-147.17;100.00;-15917.19;4988611;28;51397;-64
2023/05/15 07:22:06;;;;;;;;;35.25;31.75;;;;;-147.17;100.00;-15917.19;4991869;28;50983;-63
2023/05/15 07:24:31;;;;;;;;;41.00;35.00;;;;;-147.17;100.00;-15917.19;4981948;28;51179;-63
2023/05/15 07:26:57;;;;;;;;;36.50;32.25;;;;;-147.17;100.00;-15917.19;4991714;28;51130;-64
2023/05/15 07:29:23;;;;;;;;;44.00;37.00;;;;;-147.17;100.00;-15917.19;4992198;28;51184;-64
2023/05/15 07:31:48;;;;;;;;;39.25;34.00;;;;;-147.17;100.00;-15917.19;4973729;28;52808;-63
2023/05/15 07:34:14;;;;;;;;;41.50;35.00;;;;;-147.17;100.00;-15917.19;4973051;28;59985;-63
2023/05/15 07:36:39;;;;;;;;;42.50;33.75;;;;;-147.17;100.00;-15917.19;5000100;28;51178;-63
2023/05/15 07:39:05;;;;;;;;;41.75;36.75;;;;;-147.17;100.00;-15917.19;4993482;28;51088;-63
2023/05/15 07:41:32;;;;;;;;;35.75;33.75;;;;;-147.17;100.00;-15917.19;4989090;28;51716;-63
2023/05/15 07:43:57;;;;;;;;;30.25;28.50;;;;;-147.17;100.00;-15917.19;4993224;28;51077;-63
2023/05/15 07:46:22;;;;;;;;;39.50;36.00;;;;;-147.17;100.00;-15917.19;4990183;28;51040;-64
2023/05/15 07:48:48;;;;;;;;;36.50;33.50;;;;;-147.17;100.00;-15917.19;4990975;28;51265;-64
2023/05/15 07:51:13;;;;;;;;;34.75;31.00;;;;;-147.17;100.00;-15917.19;4986156;28;51736;-63
2023/05/15 07:53:38;;;;;;;;;37.50;32.50;;;;;-147.17;100.00;-15917.19;4991140;28;50982;-63
2023/05/15 07:56:04;;;;;;;;;43.00;35.00;;;;;-147.17;100.00;-15917.19;4992806;28;51404;-63
2023/05/15 07:58:29;;;;;;;;;40.25;34.25;;;;;-147.17;100.00;-15917.19;4988545;28;51272;-63
2023/05/15 08:00:55;;;;;;;;;34.00;30.25;;;;;-147.17;100.00;-15917.19;4991692;28;56373;-63
2023/05/15 08:03:20;;;;;;;;;36.00;31.50;;;;;-147.17;100.00;-15917.19;4992735;28;51014;-63
2023/05/15 08:05:46;;;;;;;;;38.00;34.00;;;;;-147.17;100.00;-15917.19;4984758;28;51072;-62
2023/05/15 08:08:11;;;;;;;;;32.00;30.50;;;;;-147.17;100.00;-15917.19;4992235;28;51090;-63
2023/05/15 08:10:36;;;;;;;;;35.75;31.75;;;;;-147.17;100.00;-15917.19;4990199;28;51089;-62
2023/05/15 08:13:02;;;;;;;;;37.00;34.00;;;;;-147.17;100.00;-15917.19;4991014;28;51173;-64
2023/05/15 08:15:28;;;;;;;;;31.75;30.50;;;;;-147.17;100.00;-15917.19;4985537;28;53456;-64
2023/05/15 08:17:53;;;;;;;;;42.25;35.75;;;;;-147.17;100.00;-15917.19;4992743;28;51391;-63
2023/05/15 08:20:19;;;;;;;;;40.00;34.25;;;;;-147.17;100.00;-15917.19;4990394;28;52135;-64
2023/05/15 08:22:44;;;;;;;;;34.00;32.75;;;;;-147.17;100.00;-15917.19;4992874;28;51165;-63
2023/05/15 08:25:09;;;;;;;;;36.25;33.25;;;;;-147.17;100.00;-15917.19;4992067;28;51082;-63
2023/05/15 08:27:35;;;;;;;;;45.50;36.75;;;;;-147.17;100.00;-15917.19;4991685;28;50955;-63
2023/05/15 08:30:00;;;;;;;;;37.25;33.00;;;;;-147.17;100.00;-15917.19;4992193;28;55807;-62
2023/05/15 08:32:26;;;;;;;;;38.00;32.50;;;;;-147.17;100.00;-15917.19;4992359;28;50977;-62
2023/05/15 08:34:51;;;;;;;;;40.75;34.75;;;;;-147.17;100.00;-15917.19;5241313;22;51415;-62
2023/05/15 08:37:17;;;;;;;;;46.50;34.50;;;;;-147.17;100.00;-15917.19;4966412;28;50957;-60
2023/05/15 08:39:42;;;;;;;;;36.50;33.00;;;;;-147.17;100.00;-15917.19;4967202;28;51964;-61
2023/05/15 08:42:12;;;;;;;;;35.00;32.25;;;;;-147.17;100.00;-15917.19;4969608;28;51126;-61
2023/05/15 08:44:39;;;;;;;;;40.00;35.00;;;;;-147.17;100.00;-15917.19;4971608;28;50931;-61
2023/05/15 08:47:05;;;;;;;;;36.75;33.50;;;;;-147.17;100.00;-15917.19;4962487;28;51026;-61
2023/05/15 08:49:55;;;;;;;;;37.00;33.25;;;;;-147.17;100.00;-15917.19;5356986;22;51030;-66
2023/05/15 08:52:21;;;;;;;;;41.75;34.75;;;;;-147.17;100.00;-15917.19;4963407;28;50996;-67
2023/05/15 08:54:47;;;;;;;;;41.25;35.00;;;;;-147.17;100.00;-15917.19;4954706;28;51160;-67
2023/05/15 08:57:13;;;;;;;;;39.25;33.00;;;;;-147.17;100.00;-15917.19;4943587;28;51274;-67
2023/05/15 08:59:39;;;;;;;;;36.75;31.75;;;;;-147.17;100.00;-15917.19;4958895;28;52405;-67
2023/05/15 09:02:05;;;;;;;;;43.25;37.00;;;;;-147.17;100.00;-15917.19;4968917;28;51409;-66
2023/05/15 09:04:30;;;;;;;;;37.50;31.25;;;;;-147.17;100.00;-15917.19;4958086;28;51066;-67
2023/05/15 09:06:59;;;;;;;;;50.50;40.75;;;;;-147.17;100.00;-15917.19;4960336;28;51447;-67
2023/05/15 09:09:26;;;;;;;;;42.50;36.75;;;;;-147.17;100.00;-15917.19;4954964;28;51885;-67
2023/05/15 09:11:52;;;;;;;;;44.00;37.00;;;;;-147.17;100.00;-15917.19;4961181;28;51911;-67
2023/05/15 09:14:18;;;;;;;;;45.00;36.75;;;;;-147.17;100.00;-15917.19;4967514;28;51186;-68
2023/05/15 09:16:45;;;;;;;;;39.75;33.25;;;;;-147.17;100.00;-15917.19;4952580;28;50944;-67
2023/05/15 09:19:12;;;;;;;;;40.50;33.00;;;;;-147.17;100.00;-15917.19;4952278;28;51085;-67
2023/05/15 09:21:38;;;;;;;;;44.00;38.25;;;;;-147.17;100.00;-15917.19;4959309;28;51488;-67
2023/05/15 09:24:22;;;;;;;;;47.25;37.75;;;;;-147.17;100.00;-15917.19;5246386;22;51278;-65
2023/05/15 09:27:01;;;;;;;;;46.25;35.75;;;;;-147.17;100.00;-15917.19;4940310;28;52919;-66
2023/05/15 09:29:29;;;;;;;;;45.50;36.75;;;;;-147.17;100.00;-15917.19;4946548;28;51209;-67
2023/05/15 09:31:55;;;;;;;;;44.00;36.75;;;;;-147.17;100.00;-15917.19;4947179;28;51215;-67
2023/05/15 09:34:34;;;;;;;;;42.00;34.75;;;;;-147.17;100.00;-15917.19;4943373;28;51000;-67
2023/05/15 09:37:01;;;;;;;;;43.75;36.50;;;;;-147.17;100.00;-15917.19;4950785;28;51384;-67
2023/05/15 09:39:27;;;;;;;;;41.00;36.00;;;;;-147.17;100.00;-15917.19;4938148;28;51844;-66
2023/05/15 09:41:53;;;;;;;;;44.75;37.25;;;;;-147.17;100.00;-15917.19;4951097;28;51165;-66
2023/05/15 09:44:27;;;;;;;;;50.00;40.50;;;;;-147.17;100.00;-15917.19;4951530;28;50911;-67
2023/05/15 09:46:53;;;;;;;;;39.25;33.25;;;;;-147.17;100.00;-15917.19;4951609;28;50916;-67
2023/05/15 09:49:19;;;;;;;;;44.25;35.00;;;;;-147.17;100.00;-15917.19;4945306;28;53468;-66
2023/05/15 09:51:47;;;;;;;;;40.00;34.00;;;;;-147.17;100.00;-15917.19;4951405;28;50985;-67
2023/05/15 09:54:17;;;;;;;;;42.75;36.25;;;;;-147.17;100.00;-15917.19;4951511;28;51126;-67
2023/05/15 09:56:46;;;;;;;;;41.50;36.00;;;;;-147.17;100.00;-15917.19;4951889;28;51246;-66
2023/05/15 09:59:14;;;;;;;;;41.50;35.75;;;;;-147.17;100.00;-15917.19;4954374;28;51752;-66
2023/05/15 10:01:43;;;;;;;;;45.50;36.25;;;;;-147.17;100.00;-15917.19;4949340;28;51150;-66
2023/05/15 10:04:09;;;;;;;;;41.50;36.25;;;;;-147.17;100.00;-15917.19;4951648;28;51032;-66
2023/05/15 10:06:36;;;;;;;;;47.50;39.00;;;;;-147.17;100.00;-15917.19;4953770;28;51419;-66
2023/05/15 10:09:02;;;;;;;;;48.50;41.50;;;;;-147.17;100.00;-15917.19;4949813;28;51032;-68
2023/05/15 10:11:31;;;;;;;;;46.00;37.75;;;;;-147.17;100.00;-15917.19;4953395;28;51207;-66
2023/05/15 10:13:58;;;;;;;;;47.50;39.25;;;;;-147.17;100.00;-15917.19;4954995;28;51051;-66
2023/05/15 10:16:24;;;;;;;;;49.25;41.00;;;;;-147.17;100.00;-15917.19;4954024;28;51222;-67
2023/05/15 10:18:51;;;;;;;;;49.25;40.25;;;;;-147.17;100.00;-15917.19;4952412;28;51698;-67
2023/05/15 10:21:19;;;;;;;;;49.00;40.50;;;;;-147.17;100.00;-15917.19;4955258;28;51132;-67
2023/05/15 10:23:46;;;;;;;;;50.50;39.25;;;;;-147.17;100.00;-15917.19;4953093;28;51066;-67
2023/05/15 10:26:22;;;;;;;;;50.25;40.75;;;;;-147.17;100.00;-15917.19;4953544;28;51362;-66
2023/05/15 10:28:48;;;;;;;;;47.25;40.50;;;;;-147.17;100.00;-15917.19;4953997;28;52286;-66
2023/05/15 10:31:15;;;;;;;;;53.25;41.50;;;;;-147.17;100.00;-15917.19;4946742;28;51143;-65
2023/05/15 10:33:42;;;;;;;;;46.75;39.50;;;;;-147.17;100.00;-15917.19;4945584;28;51038;-66
2023/05/15 10:36:09;;;;;;;;;48.00;38.50;;;;;-147.17;100.00;-15917.19;4952562;28;51114;-67
2023/05/15 10:38:36;;;;;;;;;49.50;41.00;;;;;-147.17;100.00;-15917.19;4953140;28;53885;-67
2023/05/15 10:41:03;;;;;;;;;51.00;41.75;;;;;-147.17;100.00;-15917.19;4947771;28;51210;-66
2023/05/15 10:43:29;;;;;;;;;49.00;40.00;;;;;-147.17;100.00;-15917.19;4954251;28;51271;-65
2023/05/15 10:45:55;;;;;;;;;50.75;40.25;;;;;-147.17;100.00;-15917.19;4949031;28;50980;-65
2023/05/15 10:48:22;;;;;;;;;47.00;38.25;;;;;-147.17;100.00;-15917.19;4941288;28;51058;-67
2023/05/15 10:50:48;;;;;;;;;48.00;39.50;;;;;-147.17;100.00;-15917.19;4951807;28;51121;-67